Stolt Jade — ZCSQ4 — position and weather

sailwx.info

Track history (hours):
 
Tides and Currents Weather Stations Pressure Air Temp Water Temp Dewpoint Dewpoint Depression Visibility Wind Speed Wind Dir Waves Ship Positions

Stolt Jade

Last reported at 2016-Jun-22 20:33 UTC. Time now 2016-Jun-28 11:25 UTC.
Position N 08°50' W 079°33'.

Length 175 m; draft 11.8 m.

Type: Ship (hazmat cat B). MMSI: 319439000.

Date/timePositionNaut miles runAvg speedWind from/ knotsBaromVisibWave heightAir tempDewpointWater temp
2016-Jun-22 20:33N 08°50' W 079°33'0 0.0
2016-Jun-22 17:15N 08°50' W 079°33'0 0.0
2016-Jun-22 16:33N 08°50' W 079°33'0 0.0
2016-Jun-22 15:33N 08°50' W 079°33'23 1.2
2016-Jun-21 20:30N 09°07' W 079°48'9 9.2
2016-Jun-21 19:33N 09°12' W 079°55'2 1.5
2016-Jun-21 18:25N 09°14' W 079°56'0 0.0
2016-Jun-21 17:28N 09°14' W 079°56'0 0.1
2016-Jun-21 16:31N 09°14' W 079°56'0 0.0
2016-Jun-21 15:19N 09°14' W 079°56'0 0.1
2016-Jun-21 14:31N 09°14' W 079°56'0 0.1
2016-Jun-21 13:28N 09°14' W 079°56'0 0.1
2016-Jun-21 12:31N 09°14' W 079°56'0 0.0
2016-Jun-21 11:33N 09°14' W 079°56'3 2.7
2016-Jun-21 10:33N 09°16' W 079°55'0 0.3
2016-Jun-21 09:33N 09°17' W 079°55'3 2.8
2016-Jun-21 08:33N 09°19' W 079°55'6 6.3
2016-Jun-21 07:34N 09°26' W 079°55'3 2.5
2016-Jun-21 06:31N 09°26' W 079°58'0 0.0
2016-Jun-21 04:32N 09°26' W 079°58'0 0.0
2016-Jun-21 03:31N 09°26' W 079°58'0 0.0
2016-Jun-21 02:31N 09°26' W 079°58'0 0.0
2016-Jun-21 01:28N 09°26' W 079°58'0 0.0
2016-Jun-21 00:31N 09°26' W 079°58'0 0.0
2016-Jun-20 23:32N 09°26' W 079°58'0 0.0
2016-Jun-20 22:31N 09°26' W 079°58'0 0.0
2016-Jun-20 21:31N 09°26' W 079°58'0 0.0
2016-Jun-20 20:31N 09°26' W 079°58'0 0.0
2016-Jun-20 19:32N 09°26' W 079°58'0 0.0
2016-Jun-20 18:28N 09°26' W 079°58'0 0.0
2016-Jun-20 17:32N 09°26' W 079°58'0 0.0
2016-Jun-20 16:25N 09°26' W 079°58'0 0.0
2016-Jun-20 15:33N 09°26' W 079°58'0 0.0
2016-Jun-20 14:34N 09°26' W 079°58'0 0.2
2016-Jun-20 13:33N 09°26' W 079°58'8 7.9
2016-Jun-20 12:33N 09°32' W 080°03'1110.6
2016-Jun-20 11:33N 09°42' W 080°07'1110.9
2016-Jun-20 10:33N 09°52' W 080°11'  
2016-Jun-15 07:27N 29°20' W 094°41'7 8.0
2016-Jun-15 06:32N 29°23' W 094°49'1010.2
2016-Jun-15 05:33N 29°32' W 094°54'1010.0
2016-Jun-15 04:33N 29°41' W 094°59'7 7.1
2016-Jun-15 03:34N 29°46' W 095°05'3 2.6
2016-Jun-15 02:33N 29°44' W 095°08'0 0.0
2016-Jun-13 18:16N 29°44' W 095°08'3 3.6
2016-Jun-13 17:32N 29°46' W 095°05'5 5.5
2016-Jun-13 16:33N 29°42' W 095°01'6 5.7
2016-Jun-13 15:33N 29°37' W 094°58'3 2.9
2016-Jun-13 14:32N 29°37' W 095°01'0 0.0
2016-Jun-13 10:25N 29°37' W 095°01'0 0.0
2016-Jun-13 09:04N 29°37' W 095°01'0 0.0
2016-Jun-13 08:25N 29°37' W 095°01'0 0.0
2016-Jun-13 07:28N 29°37' W 095°01'0 0.0
2016-Jun-13 06:22N 29°37' W 095°01'0 0.0
2016-Jun-13 04:28N 29°37' W 095°01'0 0.0
2016-Jun-13 03:28N 29°37' W 095°01'0 0.0
2016-Jun-13 01:25N 29°37' W 095°01'0 0.0
2016-Jun-13 00:31N 29°37' W 095°01'0 0.0
2016-Jun-12 23:16N 29°37' W 095°01'0 0.0
2016-Jun-12 22:10N 29°37' W 095°01'0 0.0
2016-Jun-12 21:31N 29°37' W 095°01'  
Track history (hours):
 
Tides and Currents Weather Stations Pressure Air Temp Water Temp Dewpoint Dewpoint Depression Visibility Wind Speed Wind Dir Waves Ship Positions

Stolt Jade

Last reported at 2016-Jun-22 20:33 UTC. Time now 2016-Jun-28 11:25 UTC.
Position N 08°50' W 079°33'.

Length 175 m; draft 11.8 m.

Type: Ship (hazmat cat B). MMSI: 319439000.

Date/timePositionNaut miles runAvg speedWind from/ knotsBaromVisibWave heightAir tempDewpointWater temp
2016-Jun-22 20:33N 08°50' W 079°33'0 0.0
2016-Jun-22 17:15N 08°50' W 079°33'0 0.0
2016-Jun-22 16:33N 08°50' W 079°33'0 0.0
2016-Jun-22 15:33N 08°50' W 079°33'23 1.2
2016-Jun-21 20:30N 09°07' W 079°48'9 9.2
2016-Jun-21 19:33N 09°12' W 079°55'2 1.5
2016-Jun-21 18:25N 09°14' W 079°56'0 0.0
2016-Jun-21 17:28N 09°14' W 079°56'0 0.1
2016-Jun-21 16:31N 09°14' W 079°56'0 0.0
2016-Jun-21 15:19N 09°14' W 079°56'0 0.1
2016-Jun-21 14:31N 09°14' W 079°56'0 0.1
2016-Jun-21 13:28N 09°14' W 079°56'0 0.1
2016-Jun-21 12:31N 09°14' W 079°56'0 0.0
2016-Jun-21 11:33N 09°14' W 079°56'3 2.7
2016-Jun-21 10:33N 09°16' W 079°55'0 0.3
2016-Jun-21 09:33N 09°17' W 079°55'3 2.8
2016-Jun-21 08:33N 09°19' W 079°55'6 6.3
2016-Jun-21 07:34N 09°26' W 079°55'3 2.5
2016-Jun-21 06:31N 09°26' W 079°58'0 0.0
2016-Jun-21 04:32N 09°26' W 079°58'0 0.0
2016-Jun-21 03:31N 09°26' W 079°58'0 0.0
2016-Jun-21 02:31N 09°26' W 079°58'0 0.0
2016-Jun-21 01:28N 09°26' W 079°58'0 0.0
2016-Jun-21 00:31N 09°26' W 079°58'0 0.0
2016-Jun-20 23:32N 09°26' W 079°58'0 0.0
2016-Jun-20 22:31N 09°26' W 079°58'0 0.0
2016-Jun-20 21:31N 09°26' W 079°58'0 0.0
2016-Jun-20 20:31N 09°26' W 079°58'0 0.0
2016-Jun-20 19:32N 09°26' W 079°58'0 0.0
2016-Jun-20 18:28N 09°26' W 079°58'0 0.0
2016-Jun-20 17:32N 09°26' W 079°58'0 0.0
2016-Jun-20 16:25N 09°26' W 079°58'0 0.0
2016-Jun-20 15:33N 09°26' W 079°58'0 0.0
2016-Jun-20 14:34N 09°26' W 079°58'0 0.2
2016-Jun-20 13:33N 09°26' W 079°58'8 7.9
2016-Jun-20 12:33N 09°32' W 080°03'1110.6
2016-Jun-20 11:33N 09°42' W 080°07'1110.9
2016-Jun-20 10:33N 09°52' W 080°11'  
2016-Jun-15 07:27N 29°20' W 094°41'7 8.0
2016-Jun-15 06:32N 29°23' W 094°49'1010.2
2016-Jun-15 05:33N 29°32' W 094°54'1010.0
2016-Jun-15 04:33N 29°41' W 094°59'7 7.1
2016-Jun-15 03:34N 29°46' W 095°05'3 2.6
2016-Jun-15 02:33N 29°44' W 095°08'0 0.0
2016-Jun-13 18:16N 29°44' W 095°08'3 3.6
2016-Jun-13 17:32N 29°46' W 095°05'5 5.5
2016-Jun-13 16:33N 29°42' W 095°01'6 5.7
2016-Jun-13 15:33N 29°37' W 094°58'3 2.9
2016-Jun-13 14:32N 29°37' W 095°01'0 0.0
2016-Jun-13 10:25N 29°37' W 095°01'0 0.0
2016-Jun-13 09:04N 29°37' W 095°01'0 0.0
2016-Jun-13 08:25N 29°37' W 095°01'0 0.0
2016-Jun-13 07:28N 29°37' W 095°01'0 0.0
2016-Jun-13 06:22N 29°37' W 095°01'0 0.0
2016-Jun-13 04:28N 29°37' W 095°01'0 0.0
2016-Jun-13 03:28N 29°37' W 095°01'0 0.0
2016-Jun-13 01:25N 29°37' W 095°01'0 0.0
2016-Jun-13 00:31N 29°37' W 095°01'0 0.0
2016-Jun-12 23:16N 29°37' W 095°01'0 0.0
2016-Jun-12 22:10N 29°37' W 095°01'0 0.0
2016-Jun-12 21:31N 29°37' W 095°01'  

Dump ship's entire track history